Time;durP1;ratioP1;P1;durP2;ratioP2;P2;SDS_P1;SDS_P2;PMS_P1;PMS_P2;Temp;Humidity;BMP_temperature;BMP_pressure;BME280_temperature;BME280_humidity;BME280_pressure;Samples;Min_cycle;Max_cycle;Signal;HPM_P1;HPM_P2
2022/06/20 00:00:52;;;;;;;;;;;14.70;99.90;;;;;;5093540;27;36820;-54
2022/06/20 00:03:22;;;;;;;;;;;14.70;99.90;;;;;;5092571;27;38543;-54
2022/06/20 00:05:49;;;;;;;;;;;14.70;99.90;;;;;;5093470;27;36127;-54
2022/06/20 00:08:16;;;;;;;;;;;14.70;99.90;;;;;;5093634;27;36147;-54
2022/06/20 00:10:44;;;;;;;;;;;14.80;99.90;;;;;;5092506;27;37083;-53
2022/06/20 00:13:18;;;;;;;;;;;14.70;99.90;;;;;;5093366;27;36469;-51
2022/06/20 00:15:46;;;;;;;;;;;14.70;99.90;;;;;;5093102;27;37420;-53
2022/06/20 00:18:14;;;;;;;;;;;14.70;99.90;;;;;;5093260;27;36479;-53
2022/06/20 00:20:41;;;;;;;;;;;14.70;99.90;;;;;;5092834;27;37950;-54
2022/06/20 00:23:08;;;;;;;;;;;14.60;99.90;;;;;;5093275;27;38176;-54
2022/06/20 00:25:35;;;;;;;;;;;14.60;99.90;;;;;;5092583;27;38073;-53
2022/06/20 00:28:03;;;;;;;;;;;14.60;99.90;;;;;;5092802;27;36913;-54
2022/06/20 00:30:31;;;;;;;;;;;14.60;99.90;;;;;;5093348;27;37960;-54
2022/06/20 00:32:58;;;;;;;;;;;14.60;99.90;;;;;;5093148;28;39477;-53
2022/06/20 00:35:25;;;;;;;;;;;14.60;99.90;;;;;;5093241;27;37235;-55
2022/06/20 00:37:54;;;;;;;;;;;14.50;99.90;;;;;;5093112;27;36462;-55
2022/06/20 00:40:24;;;;;;;;;;;14.50;99.90;;;;;;5093052;28;38401;-54
2022/06/20 00:42:52;;;;;;;;;;;14.50;99.90;;;;;;5092901;27;38431;-53
2022/06/20 00:45:20;;;;;;;;;;;14.50;99.90;;;;;;5092501;27;38023;-54
2022/06/20 00:47:49;;;;;;;;;;;14.50;99.90;;;;;;5092023;27;35161;-54
2022/06/20 00:50:18;;;;;;;;;;;14.40;99.90;;;;;;5092650;27;38894;-54
2022/06/20 00:52:47;;;;;;;;;;;14.40;99.90;;;;;;5094333;27;39542;-54
2022/06/20 00:55:18;;;;;;;;;;;14.30;99.90;;;;;;5096089;27;38439;-52
2022/06/20 00:57:46;;;;;;;;;;;14.30;99.90;;;;;;5096688;27;36604;-55
2022/06/20 01:00:14;;;;;;;;;;;14.30;99.90;;;;;;5096475;27;36623;-54
2022/06/20 01:02:43;;;;;;;;;;;14.30;99.90;;;;;;5096562;28;39018;-54
2022/06/20 01:05:14;;;;;;;;;;;14.30;99.90;;;;;;5095798;27;38205;-54
2022/06/20 01:07:43;;;;;;;;;;;14.30;99.90;;;;;;5096248;27;36972;-54
2022/06/20 01:10:12;;;;;;;;;;;14.20;99.90;;;;;;5095616;27;39063;-52
2022/06/20 01:12:45;;;;;;;;;;;14.10;99.90;;;;;;5096430;27;38663;-53
2022/06/20 01:15:17;;;;;;;;;;;14.10;99.90;;;;;;5096024;27;35973;-53
2022/06/20 01:17:44;;;;;;;;;;;14.00;99.90;;;;;;5095920;27;34923;-55
2022/06/20 01:20:19;;;;;;;;;;;14.00;99.90;;;;;;5095685;27;38825;-52
2022/06/20 01:22:51;;;;;;;;;;;13.90;99.90;;;;;;5095726;27;36368;-53
2022/06/20 01:25:23;;;;;;;;;;;13.90;99.90;;;;;;5094082;27;35908;-54
2022/06/20 01:27:52;;;;;;;;;;;13.80;99.90;;;;;;5095706;27;35071;-54
2022/06/20 01:30:20;;;;;;;;;;;13.80;99.90;;;;;;5095391;27;39403;-52
2022/06/20 01:32:47;;;;;;;;;;;13.70;99.90;;;;;;5095446;27;36777;-54
2022/06/20 01:37:23;;;;;;;;;;;13.70;99.90;;;;;;5095279;28;37401;-54
2022/06/20 01:38:04;;;;;;;;;;;13.60;99.90;;;;;;5095584;28;37564;-53
2022/06/20 01:40:31;;;;;;;;;;;13.60;99.90;;;;;;5094621;27;39266;-54
2022/06/20 01:42:59;;;;;;;;;;;13.50;99.90;;;;;;5095688;27;36509;-54
2022/06/20 01:48:12;;;;;;;;;;;13.40;99.90;;;;;;5096230;28;38205;-53
2022/06/20 01:50:40;;;;;;;;;;;13.40;99.90;;;;;;5095606;27;37498;-54
2022/06/20 01:53:09;;;;;;;;;;;13.40;99.90;;;;;;5095255;27;37780;-53
2022/06/20 01:55:37;;;;;;;;;;;13.40;99.90;;;;;;5095663;27;33885;-54
2022/06/20 01:58:08;;;;;;;;;;;13.30;99.90;;;;;;5095554;27;36432;-53
2022/06/20 02:00:36;;;;;;;;;;;13.30;99.90;;;;;;5095259;27;36921;-54
2022/06/20 02:03:06;;;;;;;;;;;13.40;99.90;;;;;;5095243;27;33252;-54
2022/06/20 02:05:33;;;;;;;;;;;13.40;99.90;;;;;;5095012;28;37351;-54
2022/06/20 02:08:02;;;;;;;;;;;13.40;99.90;;;;;;5094355;27;36950;-53
2022/06/20 02:10:35;;;;;;;;;;;13.50;99.90;;;;;;5095329;27;37618;-53
2022/06/20 02:13:02;;;;;;;;;;;13.50;99.90;;;;;;5095294;27;36645;-53
2022/06/20 02:15:32;;;;;;;;;;;13.50;99.90;;;;;;5094664;27;37061;-54
2022/06/20 02:18:01;;;;;;;;;;;13.50;99.90;;;;;;5094856;27;36178;-54
2022/06/20 02:20:29;;;;;;;;;;;13.60;99.90;;;;;;5094544;28;38927;-54
2022/06/20 02:22:57;;;;;;;;;;;13.60;99.90;;;;;;5094564;27;38430;-53
2022/06/20 02:25:26;;;;;;;;;;;13.60;99.90;;;;;;5095102;28;37485;-53
2022/06/20 02:27:55;;;;;;;;;;;13.60;99.90;;;;;;5095223;27;37075;-53
2022/06/20 02:30:22;;;;;;;;;;;13.60;99.90;;;;;;5095243;27;38821;-54
2022/06/20 02:32:56;;;;;;;;;;;13.50;99.90;;;;;;5094234;28;36660;-54
2022/06/20 02:35:23;;;;;;;;;;;13.50;99.90;;;;;;5093488;27;37526;-52
2022/06/20 02:37:51;;;;;;;;;;;13.50;99.90;;;;;;5094655;27;38100;-54
2022/06/20 02:40:19;;;;;;;;;;;13.40;99.90;;;;;;5094823;27;38563;-53
2022/06/20 02:42:49;;;;;;;;;;;13.30;99.90;;;;;;5094222;28;37789;-54
2022/06/20 02:45:16;;;;;;;;;;;13.30;99.90;;;;;;5094044;27;37759;-54
2022/06/20 02:47:46;;;;;;;;;;;13.20;99.90;;;;;;5093995;27;35015;-54
2022/06/20 02:50:16;;;;;;;;;;;13.20;99.90;;;;;;5094569;27;39000;-53
2022/06/20 02:52:46;;;;;;;;;;;13.10;99.90;;;;;;5094330;27;38406;-54
2022/06/20 02:55:16;;;;;;;;;;;13.10;99.90;;;;;;5094317;27;37321;-53
2022/06/20 02:57:44;;;;;;;;;;;13.10;99.90;;;;;;5094303;27;37314;-53
2022/06/20 03:00:14;;;;;;;;;;;13.00;99.90;;;;;;5094393;27;40447;-53
2022/06/20 03:02:43;;;;;;;;;;;12.90;99.90;;;;;;5094069;27;37635;-53
2022/06/20 03:05:12;;;;;;;;;;;12.90;99.90;;;;;;5094028;28;38630;-53
2022/06/20 03:07:41;;;;;;;;;;;12.90;99.90;;;;;;5093851;27;36904;-53
2022/06/20 03:10:15;;;;;;;;;;;12.80;99.90;;;;;;5094211;27;38591;-54
2022/06/20 03:12:42;;;;;;;;;;;12.90;99.90;;;;;;5094397;27;39326;-54
2022/06/20 03:15:10;;;;;;;;;;;12.80;99.90;;;;;;5093130;27;36546;-53
2022/06/20 03:17:37;;;;;;;;;;;12.80;99.90;;;;;;5094218;27;36639;-53
2022/06/20 03:20:06;;;;;;;;;;;12.80;99.90;;;;;;5093944;27;37761;-53
2022/06/20 03:22:35;;;;;;;;;;;12.70;99.90;;;;;;5093828;28;39770;-52
2022/06/20 03:25:04;;;;;;;;;;;12.70;99.90;;;;;;5094257;27;37020;-52
2022/06/20 03:27:34;;;;;;;;;;;12.70;99.90;;;;;;5093923;27;35556;-54
2022/06/20 03:30:03;;;;;;;;;;;12.70;99.90;;;;;;5093731;27;38322;-53
2022/06/20 03:32:30;;;;;;;;;;;12.60;99.90;;;;;;5093399;27;38556;-53
2022/06/20 03:34:57;;;;;;;;;;;12.60;99.90;;;;;;5093665;28;36041;-52
2022/06/20 03:37:24;;;;;;;;;;;12.70;99.90;;;;;;5093838;27;36348;-53
2022/06/20 03:39:51;;;;;;;;;;;12.70;99.90;;;;;;5094167;27;38323;-52
2022/06/20 03:42:20;;;;;;;;;;;12.70;99.90;;;;;;5093717;27;37767;-53
2022/06/20 03:44:50;;;;;;;;;;;12.80;99.90;;;;;;5094025;27;37985;-50
2022/06/20 03:47:20;;;;;;;;;;;12.80;99.90;;;;;;5093465;27;36058;-52
2022/06/20 03:49:49;;;;;;;;;;;12.80;99.90;;;;;;5093738;27;36557;-53
2022/06/20 03:52:19;;;;;;;;;;;12.80;99.90;;;;;;5093393;27;38705;-54
2022/06/20 03:54:53;;;;;;;;;;;12.80;99.90;;;;;;5093374;27;39142;-52
2022/06/20 03:57:23;;;;;;;;;;;12.90;99.90;;;;;;5093230;27;37339;-54
2022/06/20 03:59:53;;;;;;;;;;;12.90;99.90;;;;;;5093320;27;38795;-53
2022/06/20 04:02:23;;;;;;;;;;;12.90;99.90;;;;;;5092969;27;38179;-53
2022/06/20 04:04:53;;;;;;;;;;;13.00;99.90;;;;;;5093277;27;37116;-53
2022/06/20 04:07:22;;;;;;;;;;;13.00;99.90;;;;;;5093593;27;37214;-53
2022/06/20 04:12:39;;;;;;;;;;;13.10;99.90;;;;;;5093721;28;39355;-51
2022/06/20 04:15:10;;;;;;;;;;;13.00;99.90;;;;;;5092727;27;37826;-54
2022/06/20 04:20:29;;;;;;;;;;;13.00;99.90;;;;;;5094133;28;37546;-54
2022/06/20 04:22:58;;;;;;;;;;;13.00;99.90;;;;;;5093343;27;38774;-52
2022/06/20 04:25:30;;;;;;;;;;;13.10;99.90;;;;;;5092808;27;38520;-52
2022/06/20 04:28:09;;;;;;;;;;;13.30;99.90;;;;;;5097060;27;36172;-53
2022/06/20 04:30:37;;;;;;;;;;;13.50;99.90;;;;;;5097074;28;36811;-54
2022/06/20 04:33:06;;;;;;;;;;;13.70;99.90;;;;;;5096799;27;38354;-54
2022/06/20 04:35:34;;;;;;;;;;;13.90;99.90;;;;;;5096471;27;38850;-53
2022/06/20 04:38:04;;;;;;;;;;;14.10;99.90;;;;;;5096715;27;36041;-54
2022/06/20 04:40:32;;;;;;;;;;;14.20;99.90;;;;;;5096736;27;38383;-54
2022/06/20 04:43:03;;;;;;;;;;;14.30;99.90;;;;;;5096742;27;37648;-54
2022/06/20 04:45:33;;;;;;;;;;;14.30;99.90;;;;;;5096332;27;38424;-54
2022/06/20 04:48:02;;;;;;;;;;;14.30;99.90;;;;;;5096338;28;37134;-53
2022/06/20 04:50:32;;;;;;;;;;;14.20;99.90;;;;;;5096501;27;36411;-54
2022/06/20 04:53:05;;;;;;;;;;;14.20;99.90;;;;;;5096502;28;39117;-54
2022/06/20 04:55:33;;;;;;;;;;;14.20;99.90;;;;;;5096598;27;37020;-54
2022/06/20 04:58:05;;;;;;;;;;;14.30;99.90;;;;;;5096492;27;36309;-54
2022/06/20 05:00:36;;;;;;;;;;;14.40;99.90;;;;;;5096138;27;39108;-54
2022/06/20 05:03:06;;;;;;;;;;;14.50;99.90;;;;;;5095743;27;39114;-50
2022/06/20 05:05:36;;;;;;;;;;;14.60;99.90;;;;;;5096226;27;36033;-54
2022/06/20 05:08:05;;;;;;;;;;;14.80;99.90;;;;;;5096611;27;37423;-54
2022/06/20 05:10:34;;;;;;;;;;;15.00;99.90;;;;;;5095390;27;38394;-54
2022/06/20 05:13:06;;;;;;;;;;;15.00;99.90;;;;;;5096443;27;37307;-55
2022/06/20 05:15:37;;;;;;;;;;;15.20;99.90;;;;;;5096165;27;36881;-55
2022/06/20 05:18:09;;;;;;;;;;;15.40;99.90;;;;;;5096029;27;36056;-54
2022/06/20 05:20:38;;;;;;;;;;;15.50;99.90;;;;;;5095973;27;36649;-55
2022/06/20 05:23:08;;;;;;;;;;;15.50;99.90;;;;;;5096200;28;39198;-55
2022/06/20 05:25:37;;;;;;;;;;;15.60;99.90;;;;;;5095957;27;38720;-54
2022/06/20 05:28:07;;;;;;;;;;;15.80;99.90;;;;;;5095779;28;36153;-55
2022/06/20 05:30:35;;;;;;;;;;;15.90;99.90;;;;;;5095484;27;38553;-55
2022/06/20 05:33:03;;;;;;;;;;;16.00;99.90;;;;;;5095098;28;37704;-55
2022/06/20 05:35:32;;;;;;;;;;;16.10;99.90;;;;;;5095998;27;38133;-54
2022/06/20 05:38:03;;;;;;;;;;;16.20;99.90;;;;;;5094707;27;37135;-54
2022/06/20 05:40:32;;;;;;;;;;;16.30;99.90;;;;;;5094990;27;37535;-55
2022/06/20 05:42:59;;;;;;;;;;;16.40;99.90;;;;;;5095501;27;38939;-55
2022/06/20 05:45:29;;;;;;;;;;;16.50;99.90;;;;;;5095918;27;35253;-54
2022/06/20 05:47:59;;;;;;;;;;;16.70;99.90;;;;;;5096072;27;36892;-55
2022/06/20 05:50:32;;;;;;;;;;;16.70;99.90;;;;;;5095852;27;37537;-55
2022/06/20 05:53:00;;;;;;;;;;;16.80;99.90;;;;;;5095182;27;38216;-54
2022/06/20 05:55:32;;;;;;;;;;;17.00;99.90;;;;;;5095489;27;37298;-54
2022/06/20 05:57:59;;;;;;;;;;;17.10;99.90;;;;;;5095121;27;36407;-54
2022/06/20 06:00:28;;;;;;;;;;;17.20;99.90;;;;;;5095074;27;36581;-54
2022/06/20 06:02:56;;;;;;;;;;;17.30;99.90;;;;;;5095121;27;38434;-55
2022/06/20 06:05:28;;;;;;;;;;;17.40;99.30;;;;;;5095568;27;36178;-54
2022/06/20 06:07:59;;;;;;;;;;;17.40;99.40;;;;;;5095746;28;38497;-54
2022/06/20 06:10:31;;;;;;;;;;;17.50;99.10;;;;;;5094507;27;38380;-54
2022/06/20 06:13:02;;;;;;;;;;;17.70;99.30;;;;;;5094724;27;38584;-54
2022/06/20 06:15:37;;;;;;;;;;;17.70;98.40;;;;;;5094897;27;37757;-54
2022/06/20 06:18:08;;;;;;;;;;;17.70;99.30;;;;;;5094943;27;37133;-55
2022/06/20 06:20:36;;;;;;;;;;;17.90;98.70;;;;;;5094856;27;37733;-55
2022/06/20 06:23:05;;;;;;;;;;;18.00;98.80;;;;;;5094067;27;38266;-53
2022/06/20 06:25:33;;;;;;;;;;;18.00;97.80;;;;;;5095210;27;37139;-55
2022/06/20 06:28:02;;;;;;;;;;;18.00;98.00;;;;;;5094873;28;36207;-55
2022/06/20 06:30:30;;;;;;;;;;;18.00;98.00;;;;;;5094114;28;37755;-54
2022/06/20 06:33:01;;;;;;;;;;;18.00;97.50;;;;;;5094593;27;38192;-55
2022/06/20 06:35:30;;;;;;;;;;;18.00;97.20;;;;;;5094613;27;37332;-54
2022/06/20 06:38:00;;;;;;;;;;;18.00;96.90;;;;;;5094493;27;37285;-55
2022/06/20 06:40:32;;;;;;;;;;;18.10;97.50;;;;;;5094370;27;39782;-55
2022/06/20 06:42:59;;;;;;;;;;;18.20;97.10;;;;;;5094615;27;39089;-55
2022/06/20 06:45:27;;;;;;;;;;;18.10;96.00;;;;;;5094478;27;37109;-54
2022/06/20 06:47:56;;;;;;;;;;;17.90;95.60;;;;;;5094293;27;36245;-54
2022/06/20 06:50:28;;;;;;;;;;;17.70;96.30;;;;;;5094139;27;36495;-55
2022/06/20 06:52:58;;;;;;;;;;;17.80;96.10;;;;;;5093887;27;37726;-55
2022/06/20 06:55:32;;;;;;;;;;;17.90;96.70;;;;;;5094491;27;37674;-54
2022/06/20 06:58:02;;;;;;;;;;;18.00;95.30;;;;;;5094723;28;37170;-56
2022/06/20 07:00:31;;;;;;;;;;;18.10;96.20;;;;;;5093350;27;37537;-55
2022/06/20 07:03:01;;;;;;;;;;;18.10;96.70;;;;;;5093437;27;37937;-55
2022/06/20 07:05:34;;;;;;;;;;;18.20;96.00;;;;;;5094111;27;38301;-55
2022/06/20 07:08:03;;;;;;;;;;;18.20;95.10;;;;;;5093931;27;36529;-55
2022/06/20 07:10:34;;;;;;;;;;;18.30;95.40;;;;;;5094224;28;38442;-55
2022/06/20 07:13:05;;;;;;;;;;;18.50;96.30;;;;;;5094469;27;39551;-55
2022/06/20 07:15:33;;;;;;;;;;;18.60;95.30;;;;;;5093962;27;35947;-55
2022/06/20 07:18:01;;;;;;;;;;;18.40;94.20;;;;;;5094286;27;35066;-55
2022/06/20 07:20:31;;;;;;;;;;;18.40;95.00;;;;;;5094262;27;38455;-55
2022/06/20 07:23:01;;;;;;;;;;;18.40;95.90;;;;;;5093606;27;37119;-55
2022/06/20 07:25:34;;;;;;;;;;;18.40;95.40;;;;;;5094193;27;37040;-56
2022/06/20 07:28:06;;;;;;;;;;;18.30;94.90;;;;;;5093802;27;37585;-55
2022/06/20 07:30:35;;;;;;;;;;;18.10;95.60;;;;;;5094326;27;37473;-55
2022/06/20 07:33:07;;;;;;;;;;;18.00;95.80;;;;;;5093091;27;38689;-55
2022/06/20 07:35:36;;;;;;;;;;;18.00;96.30;;;;;;5093833;27;37814;-55
2022/06/20 07:38:09;;;;;;;;;;;18.10;95.70;;;;;;5093954;27;36479;-54
2022/06/20 07:40:38;;;;;;;;;;;18.10;95.10;;;;;;5093370;27;40261;-55
2022/06/20 07:43:08;;;;;;;;;;;18.10;95.40;;;;;;5093998;27;38537;-55
2022/06/20 07:45:37;;;;;;;;;;;18.00;95.30;;;;;;5094426;27;36184;-55
2022/06/20 07:48:07;;;;;;;;;;;17.90;95.20;;;;;;5093935;27;36848;-54
2022/06/20 07:50:36;;;;;;;;;;;17.70;95.60;;;;;;5093128;27;37520;-55
2022/06/20 07:53:08;;;;;;;;;;;17.70;96.70;;;;;;5093968;27;39276;-54
2022/06/20 07:55:36;;;;;;;;;;;17.80;95.90;;;;;;5094261;27;36940;-55
2022/06/20 07:58:06;;;;;;;;;;;17.90;96.20;;;;;;5094328;28;35168;-55
2022/06/20 08:00:35;;;;;;;;;;;18.10;95.90;;;;;;5092418;27;39044;-55
2022/06/20 08:03:07;;;;;;;;;;;18.20;95.20;;;;;;5093484;27;38167;-55
2022/06/20 08:05:36;;;;;;;;;;;18.40;95.50;;;;;;5093440;27;37662;-54
2022/06/20 08:08:06;;;;;;;;;;;18.50;94.30;;;;;;5093335;27;36449;-55
2022/06/20 08:10:36;;;;;;;;;;;18.40;93.60;;;;;;5093341;27;37662;-54
2022/06/20 08:13:04;;;;;;;;;;;18.30;93.20;;;;;;5093849;27;38456;-54
2022/06/20 08:15:34;;;;;;;;;;;18.20;93.60;;;;;;5093557;27;39792;-54
2022/06/20 08:18:01;;;;;;;;;;;18.10;93.50;;;;;;5093764;27;37186;-55
2022/06/20 08:20:31;;;;;;;;;;;18.00;94.60;;;;;;5091811;27;39532;-55
2022/06/20 08:23:01;;;;;;;;;;;17.90;94.10;;;;;;5092864;28;38049;-54
2022/06/20 08:25:32;;;;;;;;;;;17.80;94.90;;;;;;5092360;27;38521;-54
2022/06/20 08:28:03;;;;;;;;;;;17.80;95.20;;;;;;5093046;27;37237;-54
2022/06/20 08:30:33;;;;;;;;;;;17.90;95.30;;;;;;5093201;28;38669;-53
2022/06/20 08:33:03;;;;;;;;;;;17.80;94.40;;;;;;5092289;27;37698;-55
2022/06/20 08:35:32;;;;;;;;;;;17.70;94.90;;;;;;5093136;27;38723;-54
2022/06/20 08:38:01;;;;;;;;;;;17.50;94.50;;;;;;5093294;27;37413;-54
2022/06/20 08:40:33;;;;;;;;;;;17.50;95.70;;;;;;5092386;27;39362;-54
2022/06/20 08:43:18;;;;;;;;;;;17.50;96.40;;;;;;5092918;27;37703;-54
2022/06/20 08:45:55;;;;;;;;;;;17.50;96.60;;;;;;5092492;27;36997;-54
2022/06/20 08:48:37;;;;;;;;;;;17.60;96.30;;;;;;5092331;27;37850;-55
2022/06/20 08:51:28;;;;;;;;;;;17.80;96.50;;;;;;5092075;27;37977;-54
2022/06/20 08:54:07;;;;;;;;;;;17.80;95.30;;;;;;5091893;27;38302;-55
2022/06/20 08:56:46;;;;;;;;;;;17.80;94.70;;;;;;5092131;27;37885;-54
2022/06/20 08:59:20;;;;;;;;;;;17.90;94.70;;;;;;5093067;28;36808;-55
2022/06/20 09:01:52;;;;;;;;;;;18.20;95.30;;;;;;5091207;27;39040;-55
2022/06/20 09:04:27;;;;;;;;;;;18.40;94.00;;;;;;5092172;27;37492;-55
2022/06/20 09:07:07;;;;;;;;;;;18.50;93.50;;;;;;5092667;28;35814;-55
2022/06/20 09:09:49;;;;;;;;;;;18.60;92.70;;;;;;5092628;27;35219;-55
2022/06/20 09:12:26;;;;;;;;;;;18.80;91.70;;;;;;5092161;27;39235;-55
2022/06/20 09:15:02;;;;;;;;;;;18.90;91.40;;;;;;5095804;27;37817;-55
2022/06/20 09:17:34;;;;;;;;;;;19.00;92.50;;;;;;5095561;27;38667;-53
2022/06/20 09:20:07;;;;;;;;;;;19.00;91.10;;;;;;5095904;27;37484;-55
2022/06/20 09:22:47;;;;;;;;;;;18.80;91.40;;;;;;5095820;27;38548;-55
2022/06/20 09:25:21;;;;;;;;;;;18.70;91.50;;;;;;5095442;27;36933;-54
2022/06/20 09:27:54;;;;;;;;;;;18.80;90.60;;;;;;5095252;27;36324;-54
2022/06/20 09:30:24;;;;;;;;;;;18.80;91.00;;;;;;5095743;27;37185;-53
2022/06/20 09:33:18;;;;;;;;;;;18.60;91.50;;;;;;5095569;27;37457;-54
2022/06/20 09:35:59;;;;;;;;;;;18.40;92.40;;;;;;5096101;27;38746;-52
2022/06/20 09:38:35;;;;;;;;;;;18.30;92.80;;;;;;5096007;27;38525;-53
2022/06/20 09:41:06;;;;;;;;;;;18.30;94.20;;;;;;5094961;27;35197;-53
2022/06/20 09:43:38;;;;;;;;;;;18.60;95.60;;;;;;5096262;27;37538;-53
2022/06/20 09:46:07;;;;;;;;;;;18.80;92.70;;;;;;5095363;27;38155;-54
2022/06/20 09:48:38;;;;;;;;;;;19.00;93.10;;;;;;5095670;27;37380;-52
2022/06/20 09:51:13;;;;;;;;;;;19.20;92.90;;;;;;5095510;27;36300;-52
2022/06/20 09:53:51;;;;;;;;;;;19.30;88.30;;;;;;5095114;27;37490;-53
2022/06/20 09:56:23;;;;;;;;;;;19.40;90.40;;;;;;5095051;27;37945;-53
2022/06/20 09:58:55;;;;;;;;;;;19.50;88.70;;;;;;5095424;27;38499;-53
2022/06/20 10:01:24;;;;;;;;;;;19.50;89.90;;;;;;5094321;27;36939;-55
2022/06/20 10:03:54;;;;;;;;;;;19.40;87.00;;;;;;5095354;27;38323;-53
2022/06/20 10:06:31;;;;;;;;;;;19.30;89.20;;;;;;5095159;27;39409;-55
2022/06/20 10:09:02;;;;;;;;;;;19.40;88.90;;;;;;5095013;28;37703;-54
2022/06/20 10:11:34;;;;;;;;;;;19.40;91.80;;;;;;5094782;27;35217;-55
2022/06/20 10:14:06;;;;;;;;;;;19.40;91.10;;;;;;5094946;27;37488;-55
2022/06/20 10:16:36;;;;;;;;;;;19.40;91.60;;;;;;5094391;27;40046;-55
2022/06/20 10:19:08;;;;;;;;;;;19.40;89.20;;;;;;5094887;27;37674;-55
2022/06/20 10:21:41;;;;;;;;;;;19.50;92.10;;;;;;5094445;27;36492;-55
2022/06/20 10:24:27;;;;;;;;;;;19.60;90.20;;;;;;5094788;27;38973;-55
2022/06/20 10:27:15;;;;;;;;;;;19.70;88.40;;;;;;5094392;28;38582;-56
2022/06/20 10:29:51;;;;;;;;;;;19.70;85.00;;;;;;5091050;28;38365;-55
2022/06/20 10:32:19;;;;;;;;;;;19.70;88.20;;;;;;5094594;27;35597;-54
2022/06/20 10:34:50;;;;;;;;;;;19.70;87.70;;;;;;5094659;27;37748;-54
2022/06/20 10:37:24;;;;;;;;;;;19.90;90.70;;;;;;5094166;27;38915;-54
2022/06/20 10:39:56;;;;;;;;;;;20.00;90.10;;;;;;5094167;27;37984;-53
2022/06/20 10:42:30;;;;;;;;;;;20.10;86.00;;;;;;5095505;27;36704;-53
2022/06/20 10:45:07;;;;;;;;;;;20.10;86.30;;;;;;5093693;27;39145;-54
2022/06/20 10:47:42;;;;;;;;;;;19.90;86.20;;;;;;5093599;27;39204;-53
2022/06/20 10:50:13;;;;;;;;;;;19.80;86.50;;;;;;5094352;28;37362;-53
2022/06/20 10:52:59;;;;;;;;;;;19.90;88.50;;;;;;5094558;28;37061;-55
2022/06/20 10:55:30;;;;;;;;;;;19.90;87.70;;;;;;5094722;27;38411;-55
2022/06/20 10:58:01;;;;;;;;;;;19.80;86.50;;;;;;5095146;27;38025;-54
2022/06/20 11:00:29;;;;;;;;;;;19.80;90.40;;;;;;5094383;27;37238;-53
2022/06/20 11:03:03;;;;;;;;;;;19.80;90.30;;;;;;5094031;27;37566;-55
2022/06/20 11:05:36;;;;;;;;;;;19.80;90.00;;;;;;5093777;27;37630;-55
2022/06/20 11:08:11;;;;;;;;;;;19.90;90.70;;;;;;5094407;27;39364;-55
2022/06/20 11:10:47;;;;;;;;;;;20.00;88.50;;;;;;5094011;27;38296;-56
2022/06/20 11:13:18;;;;;;;;;;;19.90;88.10;;;;;;5094022;27;36376;-56
2022/06/20 11:15:50;;;;;;;;;;;19.90;90.00;;;;;;5093808;27;39666;-55
2022/06/20 11:18:32;;;;;;;;;;;19.90;90.20;;;;;;5092667;27;38650;-55
2022/06/20 11:21:03;;;;;;;;;;;20.00;89.40;;;;;;5090986;28;37058;-55
2022/06/20 11:23:32;;;;;;;;;;;20.00;90.50;;;;;;5092996;27;39239;-55
2022/06/20 11:26:03;;;;;;;;;;;20.10;89.80;;;;;;5092352;27;37849;-55
2022/06/20 11:28:36;;;;;;;;;;;20.10;87.30;;;;;;5094634;27;36753;-55
2022/06/20 11:31:07;;;;;;;;;;;20.10;90.10;;;;;;5094659;27;37095;-54
2022/06/20 11:36:28;;;;;;;;;;;19.90;86.50;;;;;;5093616;28;39478;-55
2022/06/20 11:39:02;;;;;;;;;;;19.90;87.60;;;;;;5095089;27;39268;-55
2022/06/20 11:41:31;;;;;;;;;;;19.90;87.70;;;;;;5094520;28;38193;-55
2022/06/20 11:44:13;;;;;;;;;;;19.90;86.60;;;;;;5094257;27;36979;-55
2022/06/20 11:46:51;;;;;;;;;;;19.80;86.20;;;;;;5082024;27;38323;-55
2022/06/20 11:49:26;;;;;;;;;;;19.70;89.60;;;;;;5087126;27;38137;-55
2022/06/20 11:51:57;;;;;;;;;;;19.90;90.90;;;;;;5081718;27;38224;-55
2022/06/20 11:54:34;;;;;;;;;;;19.90;88.20;;;;;;5083995;27;35972;-56
2022/06/20 11:57:04;;;;;;;;;;;20.00;90.10;;;;;;5085560;27;38506;-56
2022/06/20 11:59:38;;;;;;;;;;;20.00;89.90;;;;;;5084636;28;34939;-56
2022/06/20 12:02:13;;;;;;;;;;;19.80;86.90;;;;;;5084374;28;36087;-55
2022/06/20 12:04:42;;;;;;;;;;;19.70;88.60;;;;;;5083630;28;36484;-55
2022/06/20 12:07:11;;;;;;;;;;;19.60;90.60;;;;;;5085873;27;37561;-55
2022/06/20 12:09:42;;;;;;;;;;;19.60;88.00;;;;;;5086159;27;38873;-48
2022/06/20 12:12:18;;;;;;;;;;;19.60;87.30;;;;;;5085567;28;38743;-46
2022/06/20 12:14:49;;;;;;;;;;;19.50;84.30;;;;;;5081213;27;37392;-47
2022/06/20 12:17:22;;;;;;;;;;;19.50;86.60;;;;;;5084383;27;37651;-50
2022/06/20 12:25:44;;;;;;;;;;;19.10;88.70;;;;;;5085344;28;36239;-46
2022/06/20 12:28:18;;;;;;;;;;;19.20;91.10;;;;;;5084981;27;39056;-45
2022/06/20 12:30:45;;;;;;;;;;;19.30;90.80;;;;;;5083945;27;38082;-45
2022/06/20 12:33:13;;;;;;;;;;;19.30;88.00;;;;;;5085118;28;36243;-49
2022/06/20 12:35:42;;;;;;;;;;;19.20;87.50;;;;;;5084705;27;36802;-47
2022/06/20 12:38:14;;;;;;;;;;;19.20;88.00;;;;;;5086380;27;37260;-46
2022/06/20 12:40:45;;;;;;;;;;;19.30;83.90;;;;;;5084366;27;38037;-46
2022/06/20 12:43:14;;;;;;;;;;;19.30;90.30;;;;;;5084851;27;37736;-49
2022/06/20 12:45:45;;;;;;;;;;;19.30;90.40;;;;;;5085246;27;36991;-45
2022/06/20 12:48:22;;;;;;;;;;;19.30;91.30;;;;;;5087530;27;36499;-49
2022/06/20 12:50:54;;;;;;;;;;;19.20;92.40;;;;;;5087778;27;37334;-49
2022/06/20 12:53:34;;;;;;;;;;;19.20;90.50;;;;;;5088681;27;38075;-48
2022/06/20 12:56:07;;;;;;;;;;;19.20;91.70;;;;;;5086506;27;37668;-46
2022/06/20 12:59:02;;;;;;;;;;;19.20;91.00;;;;;;5087813;27;39679;-50
2022/06/20 13:01:32;;;;;;;;;;;19.30;90.50;;;;;;5085458;27;37965;-46
2022/06/20 13:04:23;;;;;;;;;;;19.10;89.50;;;;;;5087643;27;37237;-46
2022/06/20 13:06:58;;;;;;;;;;;19.10;90.60;;;;;;5088006;27;37369;-47
2022/06/20 13:09:32;;;;;;;;;;;19.00;90.50;;;;;;5089359;27;38492;-46
2022/06/20 13:12:06;;;;;;;;;;;18.90;90.90;;;;;;5088662;27;37604;-48
2022/06/20 13:14:39;;;;;;;;;;;18.90;91.10;;;;;;5088756;28;37289;-50
2022/06/20 13:17:24;;;;;;;;;;;19.00;91.40;;;;;;5087987;27;36261;-47
2022/06/20 13:20:07;;;;;;;;;;;18.90;87.70;;;;;;5088665;27;38274;-48
2022/06/20 13:22:37;;;;;;;;;;;18.80;90.10;;;;;;5089277;27;37357;-49
2022/06/20 13:25:14;;;;;;;;;;;18.80;91.80;;;;;;5088336;27;37056;-46
2022/06/20 13:27:45;;;;;;;;;;;18.90;92.20;;;;;;5088203;27;35097;-50
2022/06/20 13:30:18;;;;;;;;;;;18.80;92.10;;;;;;5089074;27;40136;-45
2022/06/20 13:32:49;;;;;;;;;;;18.90;91.90;;;;;;5087883;27;38304;-50
2022/06/20 13:35:19;;;;;;;;;;;18.90;91.40;;;;;;5087561;27;36225;-48
2022/06/20 13:37:48;;;;;;;;;;;18.80;90.90;;;;;;5089902;27;37165;-47
2022/06/20 13:40:19;;;;;;;;;;;18.70;92.60;;;;;;5089201;27;37067;-47
2022/06/20 13:42:49;;;;;;;;;;;18.70;93.00;;;;;;5088166;27;38656;-49
2022/06/20 13:45:20;;;;;;;;;;;18.70;92.20;;;;;;5087739;28;36239;-47
2022/06/20 13:47:55;;;;;;;;;;;18.60;92.00;;;;;;5088842;27;36506;-48
2022/06/20 13:50:24;;;;;;;;;;;18.60;91.50;;;;;;5088531;28;36251;-50
2022/06/20 13:52:55;;;;;;;;;;;18.60;92.20;;;;;;5088521;28;37668;-49
2022/06/20 13:55:25;;;;;;;;;;;18.60;92.00;;;;;;5087873;27;37019;-48
2022/06/20 13:57:58;;;;;;;;;;;18.60;89.90;;;;;;5088148;27;37533;-49
2022/06/20 14:00:26;;;;;;;;;;;18.60;91.20;;;;;;5087853;27;36529;-46
2022/06/20 14:03:07;;;;;;;;;;;18.60;92.00;;;;;;5088169;27;37497;-49
2022/06/20 14:05:35;;;;;;;;;;;18.60;91.30;;;;;;5087318;27;36050;-45
2022/06/20 14:08:05;;;;;;;;;;;18.60;92.20;;;;;;5087163;27;35894;-48
2022/06/20 14:10:34;;;;;;;;;;;18.70;91.90;;;;;;5086116;27;36504;-50
2022/06/20 14:13:04;;;;;;;;;;;18.70;90.80;;;;;;5087299;27;38414;-49
2022/06/20 14:15:33;;;;;;;;;;;18.70;92.30;;;;;;5085284;27;37534;-49
2022/06/20 14:18:01;;;;;;;;;;;18.70;91.40;;;;;;5087228;27;35110;-49
2022/06/20 14:20:30;;;;;;;;;;;18.60;90.60;;;;;;5087495;27;39628;-46
2022/06/20 14:22:59;;;;;;;;;;;18.50;90.40;;;;;;5086678;27;36876;-49
2022/06/20 14:25:33;;;;;;;;;;;18.50;91.20;;;;;;5087248;27;37200;-49
2022/06/20 14:28:01;;;;;;;;;;;18.40;91.30;;;;;;5087721;27;35053;-49
2022/06/20 14:30:31;;;;;;;;;;;18.40;91.50;;;;;;5088447;27;37243;-49
2022/06/20 14:33:01;;;;;;;;;;;18.50;92.00;;;;;;5087841;27;37875;-48
2022/06/20 14:35:34;;;;;;;;;;;18.50;91.90;;;;;;5087252;28;36167;-45
2022/06/20 14:38:03;;;;;;;;;;;18.50;92.10;;;;;;5086719;27;36422;-48
2022/06/20 14:40:33;;;;;;;;;;;18.60;93.20;;;;;;5087515;27;37039;-48
2022/06/20 14:43:05;;;;;;;;;;;18.60;92.80;;;;;;5087567;27;36602;-48
2022/06/20 14:45:35;;;;;;;;;;;18.60;92.30;;;;;;5086841;27;38592;-47
2022/06/20 14:48:05;;;;;;;;;;;18.60;92.50;;;;;;5086703;27;36381;-45
2022/06/20 14:50:35;;;;;;;;;;;18.70;92.10;;;;;;5086808;27;39492;-47
2022/06/20 14:53:06;;;;;;;;;;;18.70;92.30;;;;;;5087245;27;38244;-49
2022/06/20 14:55:40;;;;;;;;;;;18.70;91.60;;;;;;5087081;27;37951;-50